sensor_id;sensor_type;location;lat;lon;timestamp;P1;durP1;ratioP1;P2;durP2;ratioP2
21299;SDS011;10809;49.476;11.016;2022-09-24T00:00:41;3.93;;;2.97;;
21299;SDS011;10809;49.476;11.016;2022-09-24T00:03:13;6.23;;;3.23;;
21299;SDS011;10809;49.476;11.016;2022-09-24T00:05:43;7.07;;;3.17;;
21299;SDS011;10809;49.476;11.016;2022-09-24T00:08:14;10.17;;;3.60;;
21299;SDS011;10809;49.476;11.016;2022-09-24T00:10:46;6.03;;;4.43;;
21299;SDS011;10809;49.476;11.016;2022-09-24T00:13:17;4.60;;;3.33;;
21299;SDS011;10809;49.476;11.016;2022-09-24T00:15:48;5.80;;;3.77;;
21299;SDS011;10809;49.476;11.016;2022-09-24T00:18:19;5.50;;;4.00;;
21299;SDS011;10809;49.476;11.016;2022-09-24T00:20:50;3.80;;;3.43;;
21299;SDS011;10809;49.476;11.016;2022-09-24T00:23:21;3.57;;;3.27;;
21299;SDS011;10809;49.476;11.016;2022-09-24T00:25:51;4.60;;;3.37;;
21299;SDS011;10809;49.476;11.016;2022-09-24T00:28:40;4.67;;;3.70;;
21299;SDS011;10809;49.476;11.016;2022-09-24T00:31:10;4.43;;;3.67;;
21299;SDS011;10809;49.476;11.016;2022-09-24T00:33:41;3.17;;;2.83;;
21299;SDS011;10809;49.476;11.016;2022-09-24T00:36:12;6.13;;;3.60;;
21299;SDS011;10809;49.476;11.016;2022-09-24T00:38:44;5.63;;;3.33;;
21299;SDS011;10809;49.476;11.016;2022-09-24T00:41:19;4.33;;;3.20;;
21299;SDS011;10809;49.476;11.016;2022-09-24T00:43:50;7.60;;;3.80;;
21299;SDS011;10809;49.476;11.016;2022-09-24T00:46:39;6.47;;;3.70;;
21299;SDS011;10809;49.476;11.016;2022-09-24T00:49:13;3.83;;;3.50;;
21299;SDS011;10809;49.476;11.016;2022-09-24T00:51:47;8.07;;;3.83;;
21299;SDS011;10809;49.476;11.016;2022-09-24T00:54:20;6.57;;;3.80;;
21299;SDS011;10809;49.476;11.016;2022-09-24T00:56:54;4.13;;;3.40;;
21299;SDS011;10809;49.476;11.016;2022-09-24T00:59:27;6.07;;;3.67;;
21299;SDS011;10809;49.476;11.016;2022-09-24T01:01:59;6.07;;;4.47;;
21299;SDS011;10809;49.476;11.016;2022-09-24T01:04:31;7.33;;;3.40;;
21299;SDS011;10809;49.476;11.016;2022-09-24T01:07:01;7.20;;;4.07;;
21299;SDS011;10809;49.476;11.016;2022-09-24T01:09:32;5.23;;;3.97;;
21299;SDS011;10809;49.476;11.016;2022-09-24T01:15:28;5.10;;;4.00;;
21299;SDS011;10809;49.476;11.016;2022-09-24T01:18:08;6.63;;;3.50;;
21299;SDS011;10809;49.476;11.016;2022-09-24T01:23:44;4.47;;;3.50;;
21299;SDS011;10809;49.476;11.016;2022-09-24T01:37:46;5.87;;;3.43;;
21299;SDS011;10809;49.476;11.016;2022-09-24T01:40:22;5.10;;;3.40;;
21299;SDS011;10809;49.476;11.016;2022-09-24T01:42:56;6.47;;;3.60;;
21299;SDS011;10809;49.476;11.016;2022-09-24T01:45:28;4.70;;;2.70;;
21299;SDS011;10809;49.476;11.016;2022-09-24T01:48:00;4.27;;;3.17;;
21299;SDS011;10809;49.476;11.016;2022-09-24T01:50:57;2.93;;;2.73;;
21299;SDS011;10809;49.476;11.016;2022-09-24T01:53:48;5.33;;;3.23;;
21299;SDS011;10809;49.476;11.016;2022-09-24T01:56:26;3.20;;;2.77;;
21299;SDS011;10809;49.476;11.016;2022-09-24T02:01:56;3.40;;;2.93;;
21299;SDS011;10809;49.476;11.016;2022-09-24T02:04:35;3.30;;;3.07;;
21299;SDS011;10809;49.476;11.016;2022-09-24T02:07:13;4.67;;;3.17;;
21299;SDS011;10809;49.476;11.016;2022-09-24T02:09:56;3.10;;;2.70;;
21299;SDS011;10809;49.476;11.016;2022-09-24T02:12:36;3.00;;;2.70;;
21299;SDS011;10809;49.476;11.016;2022-09-24T02:15:13;3.70;;;2.83;;
21299;SDS011;10809;49.476;11.016;2022-09-24T02:17:47;3.27;;;2.80;;
21299;SDS011;10809;49.476;11.016;2022-09-24T02:20:22;3.33;;;3.03;;
21299;SDS011;10809;49.476;11.016;2022-09-24T02:22:56;4.90;;;3.27;;
21299;SDS011;10809;49.476;11.016;2022-09-24T02:25:43;3.77;;;3.00;;
21299;SDS011;10809;49.476;11.016;2022-09-24T02:28:21;2.93;;;2.70;;
21299;SDS011;10809;49.476;11.016;2022-09-24T02:30:58;6.50;;;3.80;;
21299;SDS011;10809;49.476;11.016;2022-09-24T02:33:33;4.30;;;3.30;;
21299;SDS011;10809;49.476;11.016;2022-09-24T02:36:24;3.53;;;2.80;;
21299;SDS011;10809;49.476;11.016;2022-09-24T02:38:54;5.20;;;3.47;;
21299;SDS011;10809;49.476;11.016;2022-09-24T02:41:25;5.43;;;3.17;;
21299;SDS011;10809;49.476;11.016;2022-09-24T02:43:57;7.00;;;3.70;;
21299;SDS011;10809;49.476;11.016;2022-09-24T02:46:28;3.57;;;2.90;;
21299;SDS011;10809;49.476;11.016;2022-09-24T02:48:58;5.30;;;3.10;;
21299;SDS011;10809;49.476;11.016;2022-09-24T02:51:28;5.70;;;3.20;;
21299;SDS011;10809;49.476;11.016;2022-09-24T02:53:59;9.40;;;3.47;;
21299;SDS011;10809;49.476;11.016;2022-09-24T02:56:30;7.07;;;3.80;;
21299;SDS011;10809;49.476;11.016;2022-09-24T02:59:01;3.83;;;3.40;;
21299;SDS011;10809;49.476;11.016;2022-09-24T03:01:32;4.10;;;2.77;;
21299;SDS011;10809;49.476;11.016;2022-09-24T03:04:03;4.23;;;2.83;;
21299;SDS011;10809;49.476;11.016;2022-09-24T03:06:33;5.40;;;3.27;;
21299;SDS011;10809;49.476;11.016;2022-09-24T03:09:04;4.67;;;3.30;;
21299;SDS011;10809;49.476;11.016;2022-09-24T03:11:35;6.30;;;3.90;;
21299;SDS011;10809;49.476;11.016;2022-09-24T03:14:05;4.77;;;2.70;;
21299;SDS011;10809;49.476;11.016;2022-09-24T03:16:35;5.53;;;3.57;;
21299;SDS011;10809;49.476;11.016;2022-09-24T03:19:06;5.27;;;3.73;;
21299;SDS011;10809;49.476;11.016;2022-09-24T03:21:36;6.10;;;3.93;;
21299;SDS011;10809;49.476;11.016;2022-09-24T03:24:06;6.70;;;4.10;;
21299;SDS011;10809;49.476;11.016;2022-09-24T03:26:37;6.07;;;3.30;;
21299;SDS011;10809;49.476;11.016;2022-09-24T03:29:07;7.60;;;4.03;;
21299;SDS011;10809;49.476;11.016;2022-09-24T03:31:38;4.93;;;3.50;;
21299;SDS011;10809;49.476;11.016;2022-09-24T03:34:08;4.87;;;3.13;;
21299;SDS011;10809;49.476;11.016;2022-09-24T03:36:38;3.80;;;3.13;;
21299;SDS011;10809;49.476;11.016;2022-09-24T03:39:09;7.57;;;3.40;;
21299;SDS011;10809;49.476;11.016;2022-09-24T03:41:39;5.03;;;3.40;;
21299;SDS011;10809;49.476;11.016;2022-09-24T03:44:09;6.73;;;3.30;;
21299;SDS011;10809;49.476;11.016;2022-09-24T03:46:40;6.23;;;3.17;;
21299;SDS011;10809;49.476;11.016;2022-09-24T03:49:10;5.50;;;3.37;;
21299;SDS011;10809;49.476;11.016;2022-09-24T03:51:40;3.93;;;3.10;;
21299;SDS011;10809;49.476;11.016;2022-09-24T03:54:11;5.47;;;3.30;;
21299;SDS011;10809;49.476;11.016;2022-09-24T03:56:41;4.33;;;3.37;;
21299;SDS011;10809;49.476;11.016;2022-09-24T03:59:12;4.83;;;2.80;;
21299;SDS011;10809;49.476;11.016;2022-09-24T04:01:42;7.23;;;3.57;;
21299;SDS011;10809;49.476;11.016;2022-09-24T04:04:13;5.40;;;2.80;;
21299;SDS011;10809;49.476;11.016;2022-09-24T04:06:45;5.00;;;3.63;;
21299;SDS011;10809;49.476;11.016;2022-09-24T04:09:15;5.90;;;3.23;;
21299;SDS011;10809;49.476;11.016;2022-09-24T04:11:45;7.80;;;3.57;;
21299;SDS011;10809;49.476;11.016;2022-09-24T04:14:16;4.57;;;3.60;;
21299;SDS011;10809;49.476;11.016;2022-09-24T04:16:46;4.77;;;3.03;;
21299;SDS011;10809;49.476;11.016;2022-09-24T04:19:16;6.20;;;3.20;;
21299;SDS011;10809;49.476;11.016;2022-09-24T04:21:47;7.27;;;3.60;;
21299;SDS011;10809;49.476;11.016;2022-09-24T04:24:18;5.10;;;3.00;;
21299;SDS011;10809;49.476;11.016;2022-09-24T04:26:48;5.53;;;2.97;;
21299;SDS011;10809;49.476;11.016;2022-09-24T04:29:19;5.57;;;2.80;;
21299;SDS011;10809;49.476;11.016;2022-09-24T04:31:49;4.53;;;2.77;;
21299;SDS011;10809;49.476;11.016;2022-09-24T04:34:20;2.83;;;2.40;;
21299;SDS011;10809;49.476;11.016;2022-09-24T04:36:51;3.60;;;2.67;;
21299;SDS011;10809;49.476;11.016;2022-09-24T04:39:21;3.20;;;2.80;;
21299;SDS011;10809;49.476;11.016;2022-09-24T04:41:55;3.13;;;2.27;;
21299;SDS011;10809;49.476;11.016;2022-09-24T04:44:26;7.40;;;2.80;;
21299;SDS011;10809;49.476;11.016;2022-09-24T04:46:59;2.63;;;2.43;;
21299;SDS011;10809;49.476;11.016;2022-09-24T04:49:31;2.80;;;2.43;;
21299;SDS011;10809;49.476;11.016;2022-09-24T04:52:02;3.90;;;2.17;;
21299;SDS011;10809;49.476;11.016;2022-09-24T04:54:33;3.33;;;2.43;;
21299;SDS011;10809;49.476;11.016;2022-09-24T04:57:03;2.33;;;2.00;;
21299;SDS011;10809;49.476;11.016;2022-09-24T04:59:34;4.77;;;2.40;;
21299;SDS011;10809;49.476;11.016;2022-09-24T05:02:04;2.67;;;2.43;;
21299;SDS011;10809;49.476;11.016;2022-09-24T05:04:36;7.10;;;2.87;;
21299;SDS011;10809;49.476;11.016;2022-09-24T05:07:07;3.57;;;2.33;;
21299;SDS011;10809;49.476;11.016;2022-09-24T05:09:37;3.93;;;2.60;;
21299;SDS011;10809;49.476;11.016;2022-09-24T05:12:07;2.70;;;2.50;;
21299;SDS011;10809;49.476;11.016;2022-09-24T05:14:38;3.60;;;2.63;;
21299;SDS011;10809;49.476;11.016;2022-09-24T05:17:08;5.57;;;2.77;;
21299;SDS011;10809;49.476;11.016;2022-09-24T05:19:38;5.40;;;2.57;;
21299;SDS011;10809;49.476;11.016;2022-09-24T05:22:09;8.73;;;2.67;;
21299;SDS011;10809;49.476;11.016;2022-09-24T05:24:39;4.50;;;2.63;;
21299;SDS011;10809;49.476;11.016;2022-09-24T05:27:09;3.07;;;2.57;;
21299;SDS011;10809;49.476;11.016;2022-09-24T05:29:40;4.10;;;2.77;;
21299;SDS011;10809;49.476;11.016;2022-09-24T05:32:13;4.27;;;2.40;;
21299;SDS011;10809;49.476;11.016;2022-09-24T05:34:44;5.37;;;3.43;;
21299;SDS011;10809;49.476;11.016;2022-09-24T05:37:15;4.87;;;2.60;;
21299;SDS011;10809;49.476;11.016;2022-09-24T05:39:45;4.20;;;2.57;;
21299;SDS011;10809;49.476;11.016;2022-09-24T05:42:16;3.23;;;2.77;;
21299;SDS011;10809;49.476;11.016;2022-09-24T05:44:46;3.23;;;2.60;;
21299;SDS011;10809;49.476;11.016;2022-09-24T05:47:17;6.50;;;3.00;;
21299;SDS011;10809;49.476;11.016;2022-09-24T05:49:47;4.53;;;2.37;;
21299;SDS011;10809;49.476;11.016;2022-09-24T05:52:17;3.87;;;2.37;;
21299;SDS011;10809;49.476;11.016;2022-09-24T05:54:48;4.47;;;2.57;;
21299;SDS011;10809;49.476;11.016;2022-09-24T05:57:18;3.47;;;3.10;;
21299;SDS011;10809;49.476;11.016;2022-09-24T05:59:48;4.33;;;2.57;;
21299;SDS011;10809;49.476;11.016;2022-09-24T06:02:19;4.20;;;2.70;;
21299;SDS011;10809;49.476;11.016;2022-09-24T06:04:49;4.70;;;2.40;;
21299;SDS011;10809;49.476;11.016;2022-09-24T06:07:19;3.03;;;2.63;;
21299;SDS011;10809;49.476;11.016;2022-09-24T06:09:50;2.87;;;2.33;;
21299;SDS011;10809;49.476;11.016;2022-09-24T06:12:21;4.10;;;2.70;;
21299;SDS011;10809;49.476;11.016;2022-09-24T06:14:52;3.47;;;3.13;;
21299;SDS011;10809;49.476;11.016;2022-09-24T06:17:23;6.23;;;2.80;;
21299;SDS011;10809;49.476;11.016;2022-09-24T06:19:54;3.53;;;2.90;;
21299;SDS011;10809;49.476;11.016;2022-09-24T06:22:26;4.23;;;2.33;;
21299;SDS011;10809;49.476;11.016;2022-09-24T06:24:57;2.90;;;2.70;;
21299;SDS011;10809;49.476;11.016;2022-09-24T06:27:27;3.70;;;3.00;;
21299;SDS011;10809;49.476;11.016;2022-09-24T06:29:57;4.50;;;2.63;;
21299;SDS011;10809;49.476;11.016;2022-09-24T06:32:28;4.53;;;2.87;;
21299;SDS011;10809;49.476;11.016;2022-09-24T06:34:58;2.93;;;2.70;;
21299;SDS011;10809;49.476;11.016;2022-09-24T06:37:29;3.00;;;2.50;;
21299;SDS011;10809;49.476;11.016;2022-09-24T06:39:59;6.43;;;3.13;;
21299;SDS011;10809;49.476;11.016;2022-09-24T06:42:29;2.80;;;2.60;;
21299;SDS011;10809;49.476;11.016;2022-09-24T06:45:00;2.70;;;2.50;;
21299;SDS011;10809;49.476;11.016;2022-09-24T06:47:30;3.53;;;2.57;;
21299;SDS011;10809;49.476;11.016;2022-09-24T06:50:00;4.07;;;3.57;;
21299;SDS011;10809;49.476;11.016;2022-09-24T06:52:31;4.03;;;3.00;;
21299;SDS011;10809;49.476;11.016;2022-09-24T06:55:01;5.10;;;2.97;;
21299;SDS011;10809;49.476;11.016;2022-09-24T06:57:31;2.97;;;2.60;;
21299;SDS011;10809;49.476;11.016;2022-09-24T07:00:02;6.60;;;3.33;;
21299;SDS011;10809;49.476;11.016;2022-09-24T07:02:33;5.60;;;3.53;;
21299;SDS011;10809;49.476;11.016;2022-09-24T07:05:04;3.50;;;2.80;;
21299;SDS011;10809;49.476;11.016;2022-09-24T07:07:35;4.88;;;3.60;;
21299;SDS011;10809;49.476;11.016;2022-09-24T07:10:06;3.15;;;2.85;;
21299;SDS011;10809;49.476;11.016;2022-09-24T07:12:39;5.75;;;3.40;;
21299;SDS011;10809;49.476;11.016;2022-09-24T07:15:10;3.22;;;2.80;;
21299;SDS011;10809;49.476;11.016;2022-09-24T07:17:41;6.47;;;3.47;;
21299;SDS011;10809;49.476;11.016;2022-09-24T07:20:11;3.53;;;2.97;;
21299;SDS011;10809;49.476;11.016;2022-09-24T07:22:42;5.97;;;3.63;;
21299;SDS011;10809;49.476;11.016;2022-09-24T07:25:12;7.50;;;3.20;;
21299;SDS011;10809;49.476;11.016;2022-09-24T07:27:42;4.57;;;3.63;;
21299;SDS011;10809;49.476;11.016;2022-09-24T07:30:13;4.03;;;3.63;;
21299;SDS011;10809;49.476;11.016;2022-09-24T07:32:43;3.30;;;2.90;;
21299;SDS011;10809;49.476;11.016;2022-09-24T07:35:13;3.53;;;2.83;;
21299;SDS011;10809;49.476;11.016;2022-09-24T07:37:44;3.03;;;2.78;;
21299;SDS011;10809;49.476;11.016;2022-09-24T07:40:14;4.82;;;3.53;;
21299;SDS011;10809;49.476;11.016;2022-09-24T07:42:45;4.47;;;3.63;;
21299;SDS011;10809;49.476;11.016;2022-09-24T07:45:17;3.40;;;3.10;;
21299;SDS011;10809;49.476;11.016;2022-09-24T07:47:54;3.72;;;3.42;;
21299;SDS011;10809;49.476;11.016;2022-09-24T07:50:31;3.13;;;2.63;;
21299;SDS011;10809;49.476;11.016;2022-09-24T07:53:03;6.72;;;3.50;;
21299;SDS011;10809;49.476;11.016;2022-09-24T07:55:35;4.22;;;3.03;;
21299;SDS011;10809;49.476;11.016;2022-09-24T07:58:10;3.53;;;3.22;;
21299;SDS011;10809;49.476;11.016;2022-09-24T08:00:42;5.93;;;3.90;;
21299;SDS011;10809;49.476;11.016;2022-09-24T08:03:13;3.58;;;3.17;;
21299;SDS011;10809;49.476;11.016;2022-09-24T08:05:44;5.15;;;3.05;;
21299;SDS011;10809;49.476;11.016;2022-09-24T08:08:14;6.50;;;2.90;;
21299;SDS011;10809;49.476;11.016;2022-09-24T08:10:44;5.18;;;2.72;;
21299;SDS011;10809;49.476;11.016;2022-09-24T08:13:15;3.28;;;2.55;;
21299;SDS011;10809;49.476;11.016;2022-09-24T08:15:45;2.47;;;2.28;;
21299;SDS011;10809;49.476;11.016;2022-09-24T08:18:15;3.28;;;2.90;;
21299;SDS011;10809;49.476;11.016;2022-09-24T08:20:46;4.32;;;2.25;;
21299;SDS011;10809;49.476;11.016;2022-09-24T08:23:16;5.40;;;3.40;;
21299;SDS011;10809;49.476;11.016;2022-09-24T08:25:47;3.22;;;2.92;;
21299;SDS011;10809;49.476;11.016;2022-09-24T08:28:17;3.25;;;2.97;;
21299;SDS011;10809;49.476;11.016;2022-09-24T08:30:48;3.83;;;3.00;;
21299;SDS011;10809;49.476;11.016;2022-09-24T08:33:19;4.10;;;3.42;;
21299;SDS011;10809;49.476;11.016;2022-09-24T08:35:49;3.50;;;3.20;;
21299;SDS011;10809;49.476;11.016;2022-09-24T08:38:20;4.78;;;3.28;;
21299;SDS011;10809;49.476;11.016;2022-09-24T08:43:51;4.03;;;3.72;;
21299;SDS011;10809;49.476;11.016;2022-09-24T08:46:32;4.55;;;4.15;;
21299;SDS011;10809;49.476;11.016;2022-09-24T08:49:28;3.67;;;3.28;;
21299;SDS011;10809;49.476;11.016;2022-09-24T08:52:21;3.70;;;3.35;;
21299;SDS011;10809;49.476;11.016;2022-09-24T08:55:09;4.63;;;3.65;;
21299;SDS011;10809;49.476;11.016;2022-09-24T08:57:48;3.45;;;3.15;;
21299;SDS011;10809;49.476;11.016;2022-09-24T09:00:25;7.00;;;3.78;;
21299;SDS011;10809;49.476;11.016;2022-09-24T09:03:03;3.60;;;3.30;;
21299;SDS011;10809;49.476;11.016;2022-09-24T09:05:44;4.85;;;3.95;;
21299;SDS011;10809;49.476;11.016;2022-09-24T09:08:27;6.95;;;4.22;;
21299;SDS011;10809;49.476;11.016;2022-09-24T09:11:22;4.43;;;3.35;;
21299;SDS011;10809;49.476;11.016;2022-09-24T09:13:58;5.25;;;3.80;;
21299;SDS011;10809;49.476;11.016;2022-09-24T09:16:35;6.93;;;4.00;;
21299;SDS011;10809;49.476;11.016;2022-09-24T09:19:14;5.18;;;3.85;;
21299;SDS011;10809;49.476;11.016;2022-09-24T09:21:51;5.68;;;3.78;;
21299;SDS011;10809;49.476;11.016;2022-09-24T09:24:35;4.70;;;3.88;;
21299;SDS011;10809;49.476;11.016;2022-09-24T09:27:12;3.95;;;3.17;;
21299;SDS011;10809;49.476;11.016;2022-09-24T09:29:45;7.40;;;4.70;;
21299;SDS011;10809;49.476;11.016;2022-09-24T09:32:42;3.50;;;3.20;;
21299;SDS011;10809;49.476;11.016;2022-09-24T09:35:20;4.53;;;4.13;;
21299;SDS011;10809;49.476;11.016;2022-09-24T09:40:52;4.50;;;4.10;;
21299;SDS011;10809;49.476;11.016;2022-09-24T09:43:31;4.28;;;3.90;;
21299;SDS011;10809;49.476;11.016;2022-09-24T09:46:08;4.55;;;3.72;;
21299;SDS011;10809;49.476;11.016;2022-09-24T09:48:45;3.67;;;3.28;;
21299;SDS011;10809;49.476;11.016;2022-09-24T09:51:23;7.03;;;4.25;;
21299;SDS011;10809;49.476;11.016;2022-09-24T09:53:56;6.10;;;4.68;;
21299;SDS011;10809;49.476;11.016;2022-09-24T09:56:32;5.25;;;4.47;;
21299;SDS011;10809;49.476;11.016;2022-09-24T09:59:06;5.63;;;4.28;;
21299;SDS011;10809;49.476;11.016;2022-09-24T10:01:46;5.38;;;4.88;;
21299;SDS011;10809;49.476;11.016;2022-09-24T10:07:08;5.97;;;3.55;;
21299;SDS011;10809;49.476;11.016;2022-09-24T10:09:41;6.20;;;4.07;;
21299;SDS011;10809;49.476;11.016;2022-09-24T10:12:19;5.70;;;4.50;;
21299;SDS011;10809;49.476;11.016;2022-09-24T10:14:58;4.30;;;3.90;;
21299;SDS011;10809;49.476;11.016;2022-09-24T10:17:33;4.97;;;3.78;;
21299;SDS011;10809;49.476;11.016;2022-09-24T10:20:23;5.15;;;4.65;;
21299;SDS011;10809;49.476;11.016;2022-09-24T10:23:03;5.00;;;4.15;;
21299;SDS011;10809;49.476;11.016;2022-09-24T10:25:36;7.57;;;4.63;;
21299;SDS011;10809;49.476;11.016;2022-09-24T10:28:07;6.25;;;4.80;;
21299;SDS011;10809;49.476;11.016;2022-09-24T10:31:17;4.88;;;4.38;;
21299;SDS011;10809;49.476;11.016;2022-09-24T10:33:52;4.70;;;4.22;;
21299;SDS011;10809;49.476;11.016;2022-09-24T10:36:25;4.78;;;4.00;;
21299;SDS011;10809;49.476;11.016;2022-09-24T10:39:14;4.85;;;4.25;;
21299;SDS011;10809;49.476;11.016;2022-09-24T10:41:45;4.40;;;4.00;;
21299;SDS011;10809;49.476;11.016;2022-09-24T10:44:33;3.97;;;3.47;;
21299;SDS011;10809;49.476;11.016;2022-09-24T10:47:25;5.05;;;4.55;;
21299;SDS011;10809;49.476;11.016;2022-09-24T10:55:38;5.65;;;5.00;;
21299;SDS011;10809;49.476;11.016;2022-09-24T11:01:21;5.55;;;4.93;;
21299;SDS011;10809;49.476;11.016;2022-09-24T11:04:25;7.82;;;5.63;;
21299;SDS011;10809;49.476;11.016;2022-09-24T11:07:26;6.15;;;5.45;;
21299;SDS011;10809;49.476;11.016;2022-09-24T11:18:57;8.93;;;5.35;;
21299;SDS011;10809;49.476;11.016;2022-09-24T11:30:22;4.97;;;4.20;;
21299;SDS011;10809;49.476;11.016;2022-09-24T11:38:58;4.90;;;4.38;;
21299;SDS011;10809;49.476;11.016;2022-09-24T11:56:13;10.15;;;4.07;;
21299;SDS011;10809;49.476;11.016;2022-09-24T12:01:43;4.30;;;2.90;;
21299;SDS011;10809;49.476;11.016;2022-09-24T12:07:27;5.10;;;3.65;;
21299;SDS011;10809;49.476;11.016;2022-09-24T12:10:24;5.38;;;3.58;;
21299;SDS011;10809;49.476;11.016;2022-09-24T12:13:08;5.47;;;3.88;;
21299;SDS011;10809;49.476;11.016;2022-09-24T12:15:54;3.88;;;3.47;;
21299;SDS011;10809;49.476;11.016;2022-09-24T12:18:35;6.28;;;3.90;;
21299;SDS011;10809;49.476;11.016;2022-09-24T12:21:18;6.80;;;3.55;;
21299;SDS011;10809;49.476;11.016;2022-09-24T12:23:58;4.30;;;3.95;;
21299;SDS011;10809;49.476;11.016;2022-09-24T12:26:38;6.55;;;4.72;;
21299;SDS011;10809;49.476;11.016;2022-09-24T12:35:17;5.57;;;4.07;;
21299;SDS011;10809;49.476;11.016;2022-09-24T12:47:21;4.45;;;3.97;;
21299;SDS011;10809;49.476;11.016;2022-09-24T12:49:56;7.25;;;4.03;;
21299;SDS011;10809;49.476;11.016;2022-09-24T12:55:21;8.45;;;4.57;;
21299;SDS011;10809;49.476;11.016;2022-09-24T12:58:05;5.05;;;3.00;;
21299;SDS011;10809;49.476;11.016;2022-09-24T13:01:06;5.60;;;3.30;;
21299;SDS011;10809;49.476;11.016;2022-09-24T13:03:42;4.18;;;3.30;;
21299;SDS011;10809;49.476;11.016;2022-09-24T13:09:47;3.50;;;3.20;;
21299;SDS011;10809;49.476;11.016;2022-09-24T13:12:28;3.60;;;3.30;;
21299;SDS011;10809;49.476;11.016;2022-09-24T13:15:05;4.78;;;3.58;;
21299;SDS011;10809;49.476;11.016;2022-09-24T13:17:39;6.68;;;2.92;;
21299;SDS011;10809;49.476;11.016;2022-09-24T13:20:17;4.28;;;3.00;;
21299;SDS011;10809;49.476;11.016;2022-09-24T13:22:56;4.05;;;3.65;;
21299;SDS011;10809;49.476;11.016;2022-09-24T13:25:54;5.65;;;3.40;;
21299;SDS011;10809;49.476;11.016;2022-09-24T13:28:26;3.95;;;3.65;;
21299;SDS011;10809;49.476;11.016;2022-09-24T13:31:21;6.40;;;3.65;;
21299;SDS011;10809;49.476;11.016;2022-09-24T13:39:54;3.97;;;3.65;;
21299;SDS011;10809;49.476;11.016;2022-09-24T13:45:34;3.80;;;2.72;;
21299;SDS011;10809;49.476;11.016;2022-09-24T13:48:21;6.82;;;3.65;;
21299;SDS011;10809;49.476;11.016;2022-09-24T13:51:11;3.10;;;2.90;;
21299;SDS011;10809;49.476;11.016;2022-09-24T13:53:48;3.83;;;3.25;;
21299;SDS011;10809;49.476;11.016;2022-09-24T13:56:23;4.22;;;3.83;;
21299;SDS011;10809;49.476;11.016;2022-09-24T13:59:01;2.90;;;2.70;;
21299;SDS011;10809;49.476;11.016;2022-09-24T14:01:39;5.10;;;3.50;;
21299;SDS011;10809;49.476;11.016;2022-09-24T14:04:14;4.05;;;3.47;;
21299;SDS011;10809;49.476;11.016;2022-09-24T14:06:50;3.28;;;2.70;;
21299;SDS011;10809;49.476;11.016;2022-09-24T14:12:13;3.80;;;3.45;;
21299;SDS011;10809;49.476;11.016;2022-09-24T14:14:45;2.97;;;2.78;;
21299;SDS011;10809;49.476;11.016;2022-09-24T14:17:23;7.80;;;2.97;;
21299;SDS011;10809;49.476;11.016;2022-09-24T14:19:54;5.80;;;2.83;;
21299;SDS011;10809;49.476;11.016;2022-09-24T14:22:28;6.78;;;2.83;;
21299;SDS011;10809;49.476;11.016;2022-09-24T14:25:05;3.97;;;3.33;;
21299;SDS011;10809;49.476;11.016;2022-09-24T14:27:40;3.47;;;2.95;;
21299;SDS011;10809;49.476;11.016;2022-09-24T14:30:18;3.08;;;2.88;;
21299;SDS011;10809;49.476;11.016;2022-09-24T14:32:52;5.40;;;3.63;;
21299;SDS011;10809;49.476;11.016;2022-09-24T14:35:32;3.72;;;2.50;;
21299;SDS011;10809;49.476;11.016;2022-09-24T14:40:39;4.50;;;3.40;;
21299;SDS011;10809;49.476;11.016;2022-09-24T14:43:17;5.65;;;4.03;;
21299;SDS011;10809;49.476;11.016;2022-09-24T14:46:00;3.88;;;3.45;;
21299;SDS011;10809;49.476;11.016;2022-09-24T14:49:02;4.78;;;3.45;;
21299;SDS011;10809;49.476;11.016;2022-09-24T14:51:52;3.47;;;3.17;;
21299;SDS011;10809;49.476;11.016;2022-09-24T14:54:36;3.55;;;3.25;;
21299;SDS011;10809;49.476;11.016;2022-09-24T14:59:47;5.75;;;3.60;;
21299;SDS011;10809;49.476;11.016;2022-09-24T15:02:28;4.70;;;2.50;;
21299;SDS011;10809;49.476;11.016;2022-09-24T15:05:04;5.35;;;3.40;;
21299;SDS011;10809;49.476;11.016;2022-09-24T15:07:36;4.18;;;3.50;;
21299;SDS011;10809;49.476;11.016;2022-09-24T15:10:16;2.85;;;2.65;;
21299;SDS011;10809;49.476;11.016;2022-09-24T15:12:50;4.82;;;2.92;;
21299;SDS011;10809;49.476;11.016;2022-09-24T15:17:53;4.10;;;3.70;;
21299;SDS011;10809;49.476;11.016;2022-09-24T15:20:24;4.30;;;2.92;;
21299;SDS011;10809;49.476;11.016;2022-09-24T15:22:54;3.08;;;2.78;;
21299;SDS011;10809;49.476;11.016;2022-09-24T15:25:25;3.35;;;2.58;;
21299;SDS011;10809;49.476;11.016;2022-09-24T15:27:55;2.88;;;2.67;;
21299;SDS011;10809;49.476;11.016;2022-09-24T15:30:25;5.40;;;2.70;;
21299;SDS011;10809;49.476;11.016;2022-09-24T15:32:56;2.60;;;2.40;;
21299;SDS011;10809;49.476;11.016;2022-09-24T15:35:26;3.00;;;2.80;;
21299;SDS011;10809;49.476;11.016;2022-09-24T15:37:56;2.58;;;2.38;;
21299;SDS011;10809;49.476;11.016;2022-09-24T15:40:27;4.32;;;2.95;;
21299;SDS011;10809;49.476;11.016;2022-09-24T15:43:00;3.65;;;2.95;;
21299;SDS011;10809;49.476;11.016;2022-09-24T15:45:30;3.83;;;3.22;;
21299;SDS011;10809;49.476;11.016;2022-09-24T15:48:02;3.60;;;2.97;;
21299;SDS011;10809;49.476;11.016;2022-09-24T15:50:33;2.97;;;2.65;;
21299;SDS011;10809;49.476;11.016;2022-09-24T15:53:03;4.60;;;3.13;;
21299;SDS011;10809;49.476;11.016;2022-09-24T15:55:34;3.13;;;2.83;;
21299;SDS011;10809;49.476;11.016;2022-09-24T15:58:09;3.90;;;3.40;;
21299;SDS011;10809;49.476;11.016;2022-09-24T16:00:41;4.30;;;3.20;;
21299;SDS011;10809;49.476;11.016;2022-09-24T16:03:16;4.35;;;3.38;;
21299;SDS011;10809;49.476;11.016;2022-09-24T16:05:49;4.75;;;3.35;;
21299;SDS011;10809;49.476;11.016;2022-09-24T16:08:19;3.92;;;3.50;;
21299;SDS011;10809;49.476;11.016;2022-09-24T16:10:50;6.53;;;3.50;;
21299;SDS011;10809;49.476;11.016;2022-09-24T16:13:20;4.22;;;3.63;;
21299;SDS011;10809;49.476;11.016;2022-09-24T16:15:52;6.03;;;3.13;;
21299;SDS011;10809;49.476;11.016;2022-09-24T16:18:22;4.10;;;3.65;;
21299;SDS011;10809;49.476;11.016;2022-09-24T16:20:55;3.70;;;3.30;;
21299;SDS011;10809;49.476;11.016;2022-09-24T16:23:25;7.70;;;3.38;;
21299;SDS011;10809;49.476;11.016;2022-09-24T16:25:56;4.75;;;3.97;;
21299;SDS011;10809;49.476;11.016;2022-09-24T16:28:28;8.15;;;4.20;;
21299;SDS011;10809;49.476;11.016;2022-09-24T16:31:01;8.75;;;3.90;;
21299;SDS011;10809;49.476;11.016;2022-09-24T16:33:38;4.65;;;4.20;;
21299;SDS011;10809;49.476;11.016;2022-09-24T16:36:08;6.10;;;4.43;;
21299;SDS011;10809;49.476;11.016;2022-09-24T16:38:39;4.78;;;3.80;;
21299;SDS011;10809;49.476;11.016;2022-09-24T16:41:10;5.65;;;4.35;;
21299;SDS011;10809;49.476;11.016;2022-09-24T16:43:40;6.47;;;4.00;;
21299;SDS011;10809;49.476;11.016;2022-09-24T16:46:11;7.60;;;4.57;;
21299;SDS011;10809;49.476;11.016;2022-09-24T16:48:41;4.22;;;3.83;;
21299;SDS011;10809;49.476;11.016;2022-09-24T16:51:13;4.63;;;4.22;;
21299;SDS011;10809;49.476;11.016;2022-09-24T16:53:43;5.15;;;4.60;;
21299;SDS011;10809;49.476;11.016;2022-09-24T16:56:15;4.78;;;4.10;;
21299;SDS011;10809;49.476;11.016;2022-09-24T16:58:46;6.28;;;4.15;;
21299;SDS011;10809;49.476;11.016;2022-09-24T17:01:18;5.05;;;4.63;;
21299;SDS011;10809;49.476;11.016;2022-09-24T17:03:50;7.25;;;4.43;;
21299;SDS011;10809;49.476;11.016;2022-09-24T17:06:22;5.15;;;4.75;;
21299;SDS011;10809;49.476;11.016;2022-09-24T17:08:55;6.25;;;5.05;;
21299;SDS011;10809;49.476;11.016;2022-09-24T17:11:45;5.57;;;4.47;;
21299;SDS011;10809;49.476;11.016;2022-09-24T17:14:17;6.45;;;4.60;;
21299;SDS011;10809;49.476;11.016;2022-09-24T17:16:48;6.43;;;4.35;;
21299;SDS011;10809;49.476;11.016;2022-09-24T17:19:18;7.85;;;5.65;;